Time;durP1;ratioP1;P1;durP2;ratioP2;P2;SDS_P1;SDS_P2;PMS_P1;PMS_P2;Temp;Humidity;BMP_temperature;BMP_pressure;BME280_temperature;BME280_humidity;BME280_pressure;Samples;Min_cycle;Max_cycle;Signal;HPM_P1;HPM_P2
2023/06/14 00:01:38;;;;;;;7.87;6.80;;;21.20;4.70;;;;;;5043560;28;20277;-82
2023/06/14 00:04:04;;;;;;;7.00;6.30;;;21.10;1.00;;;;;;5040300;28;20201;-83
2023/06/14 00:06:30;;;;;;;7.60;6.90;;;21.10;1.00;;;;;;5040319;28;20444;-82
2023/06/14 00:08:56;;;;;;;14.70;7.80;;;21.00;1.00;;;;;;5053941;28;20571;-82
2023/06/14 00:11:21;;;;;;;8.73;7.00;;;21.00;1.00;;;;;;5044310;28;20232;-82
2023/06/14 00:13:47;;;;;;;9.20;7.07;;;20.90;1.00;;;;;;5048886;28;20191;-82
2023/06/14 00:16:13;;;;;;;8.53;6.93;;;20.90;1.00;;;;;;5041199;28;20187;-82
2023/06/14 00:18:38;;;;;;;7.80;7.00;;;20.90;1.00;;;;;;5044726;28;20209;-82
2023/06/14 00:21:07;;;;;;;8.73;6.80;;;20.90;1.00;;;;;;5044597;28;20185;-84
2023/06/14 00:23:32;;;;;;;7.63;6.83;;;20.80;1.00;;;;;;5039303;28;20674;-82
2023/06/14 00:25:58;;;;;;;9.00;7.23;;;20.80;1.00;;;;;;5051086;28;20434;-83
2023/06/14 00:28:23;;;;;;;8.20;6.20;;;20.80;1.00;;;;;;5043212;28;20208;-82
2023/06/14 00:30:49;;;;;;;7.53;6.60;;;20.70;1.00;;;;;;5040647;28;20238;-82
2023/06/14 00:33:15;;;;;;;12.47;6.20;;;20.70;1.00;;;;;;5037613;28;20193;-83
2023/06/14 00:35:40;;;;;;;7.90;6.50;;;20.60;1.00;;;;;;5044942;28;20202;-82
2023/06/14 00:38:06;;;;;;;10.30;6.67;;;20.60;1.00;;;;;;5052864;28;20596;-82
2023/06/14 00:40:31;;;;;;;8.83;6.80;;;20.50;1.00;;;;;;5033839;28;20840;-82
2023/06/14 00:42:57;;;;;;;9.13;8.23;;;20.50;1.00;;;;;;5037502;28;20294;-82
2023/06/14 00:45:22;;;;;;;8.50;7.13;;;20.50;1.00;;;;;;5043300;28;20231;-82
2023/06/14 00:47:51;;;;;;;7.17;6.43;;;20.40;1.00;;;;;;5040824;28;20197;-82
2023/06/14 00:50:16;;;;;;;7.47;6.53;;;20.40;1.00;;;;;;5056487;28;20188;-82
2023/06/14 00:52:42;;;;;;;8.73;7.47;;;20.30;1.00;;;;;;5054902;28;20437;-81
2023/06/14 00:55:08;;;;;;;8.40;7.10;;;20.30;1.00;;;;;;5041877;28;20194;-82
2023/06/14 00:57:37;;;;;;;7.73;6.93;;;20.30;1.30;;;;;;5034135;28;20447;-82
2023/06/14 01:00:04;;;;;;;8.00;6.90;;;20.30;1.90;;;;;;5040227;28;20441;-83
2023/06/14 01:02:30;;;;;;;8.37;7.57;;;20.30;1.80;;;;;;5039790;28;20603;-83
2023/06/14 01:04:56;;;;;;;7.53;6.77;;;20.30;2.00;;;;;;5044375;28;20450;-82
2023/06/14 01:07:43;;;;;;;9.20;7.90;;;20.30;2.40;;;;;;5051476;28;20308;-82
2023/06/14 01:10:33;;;;;;;9.10;7.00;;;20.20;2.80;;;;;;5036582;28;20532;-82
2023/06/14 01:13:20;;;;;;;7.40;6.70;;;20.20;2.80;;;;;;5040109;28;20466;-82
2023/06/14 01:15:47;;;;;;;9.37;7.47;;;20.10;3.50;;;;;;5044588;28;20430;-82
2023/06/14 01:18:17;;;;;;;10.53;7.20;;;20.00;3.50;;;;;;5051293;28;20476;-82
2023/06/14 01:20:44;;;;;;;8.43;6.60;;;20.00;4.10;;;;;;5048730;28;20522;-82
2023/06/14 01:23:12;;;;;;;8.17;6.63;;;20.00;4.00;;;;;;5042560;28;20500;-83
2023/06/14 01:25:38;;;;;;;7.80;7.00;;;20.00;4.40;;;;;;5034996;28;20469;-82
2023/06/14 01:28:10;;;;;;;8.30;6.57;;;20.00;13.90;;;;;;5041539;28;20454;-83
2023/06/14 01:30:44;;;;;;;11.20;7.30;;;19.90;4.60;;;;;;5052812;28;20483;-81
2023/06/14 01:33:18;;;;;;;8.47;7.20;;;19.80;4.60;;;;;;5050245;28;21234;-82
2023/06/14 01:35:46;;;;;;;8.53;7.27;;;19.70;5.30;;;;;;5047280;28;20433;-82
2023/06/14 01:38:14;;;;;;;7.60;6.83;;;19.70;5.60;;;;;;5039282;28;20459;-81
2023/06/14 01:40:42;;;;;;;7.80;7.00;;;19.70;6.00;;;;;;5039733;28;20441;-82
2023/06/14 01:43:09;;;;;;;13.23;8.70;;;19.60;6.20;;;;;;5040297;28;20481;-82
2023/06/14 01:45:36;;;;;;;7.77;7.07;;;19.60;5.80;;;;;;5050986;28;20435;-82
2023/06/14 01:48:02;;;;;;;7.63;6.83;;;19.60;7.00;;;;;;5039670;28;20453;-80
2023/06/14 01:50:31;;;;;;;8.90;7.50;;;19.60;6.20;;;;;;5040662;28;20494;-83
2023/06/14 01:52:57;;;;;;;7.60;6.90;;;19.50;7.60;;;;;;5037776;28;20448;-83
2023/06/14 01:55:27;;;;;;;8.63;7.70;;;19.60;7.50;;;;;;5036482;28;20464;-83
2023/06/14 01:57:53;;;;;;;7.13;6.43;;;19.50;8.00;;;;;;5043249;28;20445;-81
2023/06/14 02:00:20;;;;;;;10.10;7.03;;;19.50;8.70;;;;;;5046676;28;20658;-82
2023/06/14 02:02:45;;;;;;;8.00;7.20;;;19.50;9.20;;;;;;5049118;28;20463;-82
2023/06/14 02:05:11;;;;;;;9.40;6.90;;;19.50;9.50;;;;;;5045438;28;20548;-82
2023/06/14 02:07:37;;;;;;;8.13;7.33;;;19.40;10.10;;;;;;5041706;28;20199;-82
2023/06/14 02:10:05;;;;;;;8.20;7.40;;;19.40;10.50;;;;;;5042502;28;20683;-83
2023/06/14 02:12:31;;;;;;;9.57;7.60;;;19.40;11.10;;;;;;5037382;28;20212;-82
2023/06/14 02:14:57;;;;;;;7.30;6.60;;;19.30;10.80;;;;;;5037008;28;20878;-82
2023/06/14 02:17:23;;;;;;;8.40;7.33;;;19.30;10.90;;;;;;5042043;28;20183;-82
2023/06/14 02:19:50;;;;;;;8.23;6.80;;;19.20;11.00;;;;;;5043165;28;20606;-83
2023/06/14 02:22:16;;;;;;;7.63;6.70;;;19.20;11.60;;;;;;5042301;28;20625;-83
2023/06/14 02:24:42;;;;;;;12.90;7.93;;;19.20;12.50;;;;;;5042025;28;20558;-81
2023/06/14 02:27:10;;;;;;;9.63;7.70;;;19.10;12.00;;;;;;5052323;28;20500;-82
2023/06/14 02:29:35;;;;;;;10.00;7.03;;;19.00;11.90;;;;;;5040463;28;20211;-80
2023/06/14 02:32:01;;;;;;;10.87;7.70;;;18.90;12.40;;;;;;5035614;28;20526;-83
2023/06/14 02:34:27;;;;;;;9.20;7.87;;;18.90;11.80;;;;;;5040000;28;20192;-82
2023/06/14 02:36:52;;;;;;;7.40;6.70;;;18.90;12.30;;;;;;5039138;28;20214;-81
2023/06/14 02:39:20;;;;;;;13.80;8.50;;;18.80;12.90;;;;;;5037641;28;20199;-83
2023/06/14 02:41:46;;;;;;;8.90;7.20;;;18.80;14.00;;;;;;5037419;28;20209;-82
2023/06/14 02:44:13;;;;;;;8.23;7.43;;;18.90;13.60;;;;;;5038080;28;20530;-83
2023/06/14 02:46:39;;;;;;;9.73;7.70;;;18.90;14.50;;;;;;5035208;28;20198;-82
2023/06/14 02:49:05;;;;;;;9.80;6.80;;;18.80;13.60;;;;;;5034815;28;20451;-83
2023/06/14 02:51:30;;;;;;;8.83;7.60;;;18.80;13.50;;;;;;5037179;28;20927;-82
2023/06/14 02:53:56;;;;;;;8.33;7.43;;;18.80;13.70;;;;;;5037737;28;20529;-82
2023/06/14 02:56:22;;;;;;;8.27;7.10;;;18.80;14.40;;;;;;5038156;28;20198;-82
2023/06/14 02:58:48;;;;;;;10.40;8.57;;;18.80;14.70;;;;;;5037654;28;20201;-82
2023/06/14 03:01:14;;;;;;;7.80;7.00;;;18.80;15.10;;;;;;5044722;28;20818;-82
2023/06/14 03:03:40;;;;;;;8.80;7.17;;;18.80;15.60;;;;;;5039518;28;20220;-80
2023/06/14 03:06:05;;;;;;;9.53;7.37;;;18.70;16.10;;;;;;5040552;28;20441;-82
2023/06/14 03:08:33;;;;;;;11.60;7.73;;;18.70;15.40;;;;;;5038344;28;20210;-82
2023/06/14 03:10:58;;;;;;;8.10;7.27;;;18.70;15.80;;;;;;5053876;28;20191;-82
2023/06/14 03:13:24;;;;;;;7.93;7.20;;;18.70;16.70;;;;;;5047569;28;20465;-82
2023/06/14 03:15:50;;;;;;;8.80;7.90;;;18.70;16.80;;;;;;5040645;28;20195;-82
2023/06/14 03:18:16;;;;;;;8.07;7.23;;;18.60;16.90;;;;;;5039936;28;20219;-81
2023/06/14 03:20:45;;;;;;;9.53;7.13;;;18.60;17.20;;;;;;5044388;28;20539;-82
2023/06/14 03:23:11;;;;;;;9.23;7.37;;;18.60;17.70;;;;;;5032683;28;20497;-82
2023/06/14 03:25:38;;;;;;;9.23;8.23;;;18.50;17.50;;;;;;5042187;28;20979;-81
2023/06/14 03:28:05;;;;;;;11.00;8.13;;;18.50;18.00;;;;;;5046293;28;20451;-82
2023/06/14 03:30:31;;;;;;;8.07;7.27;;;18.50;18.20;;;;;;5039927;28;20511;-82
2023/06/14 03:32:57;;;;;;;7.43;6.77;;;18.50;18.50;;;;;;5041422;28;20435;-82
2023/06/14 03:35:23;;;;;;;8.10;7.30;;;18.40;18.80;;;;;;5034620;28;20447;-82
2023/06/14 03:37:49;;;;;;;8.47;7.13;;;18.40;19.60;;;;;;5036815;28;20453;-82
2023/06/14 03:40:17;;;;;;;9.37;7.53;;;18.40;20.60;;;;;;5045659;28;20454;-82
2023/06/14 03:42:43;;;;;;;8.57;7.67;;;18.40;20.50;;;;;;5037667;28;20469;-82
2023/06/14 03:45:09;;;;;;;9.80;7.30;;;18.40;20.80;;;;;;5039086;28;20496;-82
2023/06/14 03:47:35;;;;;;;8.93;8.13;;;18.40;20.90;;;;;;5038614;28;20200;-82
2023/06/14 03:50:02;;;;;;;8.60;7.70;;;18.40;21.60;;;;;;5044688;28;20442;-82
2023/06/14 03:52:28;;;;;;;11.27;7.80;;;18.40;22.00;;;;;;5049279;28;20479;-82
2023/06/14 03:54:53;;;;;;;9.73;8.50;;;18.40;22.10;;;;;;5037320;28;20442;-83
2023/06/14 03:57:22;;;;;;;9.33;8.27;;;18.40;22.60;;;;;;5032477;28;20567;-82
2023/06/14 03:59:47;;;;;;;8.40;7.60;;;18.50;23.00;;;;;;5039798;28;20208;-82
2023/06/14 04:02:17;;;;;;;8.63;7.73;;;18.40;23.50;;;;;;5036960;28;20561;-82
2023/06/14 04:04:45;;;;;;;8.97;8.10;;;18.40;23.40;;;;;;5043328;28;20184;-82
2023/06/14 04:07:11;;;;;;;7.50;6.80;;;18.50;23.30;;;;;;5050108;28;20485;-82
2023/06/14 04:09:37;;;;;;;9.93;8.17;;;18.50;24.00;;;;;;5045657;28;20545;-82
2023/06/14 04:12:03;;;;;;;10.13;7.83;;;18.50;24.20;;;;;;5036607;28;20449;-82
2023/06/14 04:14:30;;;;;;;13.37;7.43;;;18.60;23.90;;;;;;5033496;28;20444;-82
2023/06/14 04:16:56;;;;;;;10.00;7.93;;;18.60;24.60;;;;;;5045189;28;20450;-82
2023/06/14 04:19:21;;;;;;;13.33;8.03;;;18.70;24.90;;;;;;5048609;28;20489;-82
2023/06/14 04:21:47;;;;;;;11.10;8.03;;;18.80;25.30;;;;;;5046949;28;20189;-82
2023/06/14 04:24:13;;;;;;;8.40;7.10;;;18.80;25.20;;;;;;5039506;28;20216;-82
2023/06/14 04:26:44;;;;;;;8.20;7.40;;;18.80;26.20;;;;;;5038084;28;20223;-82
2023/06/14 04:29:14;;;;;;;10.10;8.87;;;18.90;26.10;;;;;;5030585;28;20511;-82
2023/06/14 04:31:40;;;;;;;10.93;7.80;;;19.00;25.70;;;;;;5047253;28;20451;-82
2023/06/14 04:34:05;;;;;;;10.70;7.53;;;19.00;25.80;;;;;;5041544;28;20469;-82
2023/06/14 04:36:34;;;;;;;14.33;8.33;;;19.10;26.50;;;;;;5043460;28;20437;-83
2023/06/14 04:39:00;;;;;;;9.00;7.50;;;19.20;26.50;;;;;;5040905;28;20599;-82
2023/06/14 04:41:30;;;;;;;17.07;7.63;;;19.20;26.70;;;;;;5036609;28;20977;-82
2023/06/14 04:44:05;;;;;;;9.50;7.67;;;19.30;26.80;;;;;;5039733;28;20477;-81
2023/06/14 04:46:31;;;;;;;8.13;7.30;;;19.30;26.80;;;;;;5035523;28;20434;-82
2023/06/14 04:49:02;;;;;;;8.47;7.10;;;19.40;26.80;;;;;;5044159;28;20458;-82
2023/06/14 04:51:29;;;;;;;11.37;8.20;;;19.50;27.40;;;;;;5045549;28;20441;-82
2023/06/14 04:53:58;;;;;;;9.50;8.43;;;19.50;28.10;;;;;;5039825;28;20442;-80
2023/06/14 04:56:25;;;;;;;9.80;8.33;;;19.60;28.10;;;;;;5044286;28;20455;-82
2023/06/14 04:58:51;;;;;;;12.03;8.50;;;19.70;28.70;;;;;;5048788;28;20468;-81
2023/06/14 05:01:16;;;;;;;9.10;7.63;;;19.70;29.00;;;;;;5050226;28;20747;-82
2023/06/14 05:03:44;;;;;;;10.57;8.40;;;19.80;29.80;;;;;;5040536;28;20472;-82
2023/06/14 05:06:11;;;;;;;11.00;8.57;;;19.80;29.90;;;;;;5041946;28;20237;-82
2023/06/14 05:08:36;;;;;;;11.73;8.03;;;19.90;29.90;;;;;;5038321;28;20512;-81
2023/06/14 05:11:02;;;;;;;12.20;6.47;;;19.90;30.30;;;;;;5054314;28;20490;-82
2023/06/14 05:13:27;;;;;;;13.93;8.37;;;19.90;30.00;;;;;;5046950;28;20196;-82
2023/06/14 05:15:53;;;;;;;10.90;7.87;;;20.00;29.90;;;;;;5043767;28;20180;-82
2023/06/14 05:18:19;;;;;;;9.13;7.40;;;20.00;30.00;;;;;;5043134;28;20213;-82
2023/06/14 05:20:45;;;;;;;12.93;8.50;;;20.10;30.00;;;;;;5034627;28;20185;-83
2023/06/14 05:23:14;;;;;;;9.50;7.50;;;20.10;30.30;;;;;;5039109;28;20619;-82
2023/06/14 05:25:43;;;;;;;12.00;8.07;;;20.20;31.30;;;;;;5051214;28;20782;-80
2023/06/14 05:28:09;;;;;;;10.70;7.70;;;20.30;31.30;;;;;;5045930;28;20546;-81
2023/06/14 05:30:35;;;;;;;12.10;7.63;;;20.40;31.80;;;;;;5046750;28;20475;-82
2023/06/14 05:33:01;;;;;;;8.93;8.13;;;20.50;31.80;;;;;;5038454;28;20184;-82
2023/06/14 05:35:26;;;;;;;12.63;8.07;;;20.60;32.00;;;;;;5041064;28;20888;-82
2023/06/14 05:37:53;;;;;;;10.47;7.93;;;20.70;32.20;;;;;;5044867;28;20243;-82
2023/06/14 05:40:19;;;;;;;13.40;7.60;;;20.80;32.00;;;;;;5048715;28;20581;-82
2023/06/14 05:42:45;;;;;;;12.27;7.83;;;20.80;32.20;;;;;;5040557;28;20472;-82
2023/06/14 05:45:11;;;;;;;13.93;8.10;;;20.90;31.90;;;;;;5040462;28;20182;-82
2023/06/14 05:47:36;;;;;;;13.33;9.73;;;21.00;33.90;;;;;;5038056;28;20471;-80
2023/06/14 05:50:02;;;;;;;9.80;7.63;;;21.10;34.50;;;;;;5045714;28;20182;-82
2023/06/14 05:52:27;;;;;;;11.60;7.20;;;21.10;35.10;;;;;;5045038;28;20212;-82
2023/06/14 05:54:53;;;;;;;14.73;7.57;;;21.20;35.00;;;;;;5041139;28;20191;-82
2023/06/14 05:57:19;;;;;;;24.83;8.03;;;21.30;34.60;;;;;;5037700;28;20254;-83
2023/06/14 05:59:44;;;;;;;12.47;7.77;;;21.40;33.20;;;;;;5034001;28;20204;-83
2023/06/14 06:02:10;;;;;;;11.57;7.73;;;21.40;32.50;;;;;;5034317;28;20183;-82
2023/06/14 06:04:35;;;;;;;14.40;7.10;;;21.50;32.30;;;;;;5037542;28;20286;-82
2023/06/14 06:07:01;;;;;;;10.53;7.60;;;21.70;32.60;;;;;;5039617;28;20180;-80
2023/06/14 06:09:27;;;;;;;13.10;6.93;;;22.00;32.80;;;;;;5036613;28;20659;-82
2023/06/14 06:11:52;;;;;;;15.13;7.63;;;22.60;34.50;;;;;;5034091;28;20179;-81
2023/06/14 06:14:18;;;;;;;18.97;6.80;;;23.70;36.80;;;;;;5033688;28;20183;-82
2023/06/14 06:16:43;;;;;;;10.40;5.87;;;25.80;40.40;;;;;;5035788;28;20268;-81
2023/06/14 06:19:09;;;;;;;13.67;5.73;;;29.10;45.40;;;;;;5038145;28;20205;-83
2023/06/14 06:21:34;;;;;;;8.00;5.90;;;32.30;48.80;;;;;;5039028;28;20254;-82
2023/06/14 06:24:03;;;;;;;6.30;5.67;;;34.90;48.60;;;;;;5037610;28;20210;-83
2023/06/14 06:26:28;;;;;;;9.30;5.43;;;37.20;43.50;;;;;;5033324;28;20216;-83
2023/06/14 06:28:55;;;;;;;12.63;5.47;;;39.20;36.00;;;;;;5037705;28;20460;-84
2023/06/14 06:31:22;;;;;;;7.13;5.20;;;40.80;27.30;;;;;;5038828;28;20198;-84
2023/06/14 06:33:47;;;;;;;10.50;5.53;;;42.20;20.10;;;;;;5036180;28;20500;-84
2023/06/14 06:36:13;;;;;;;7.40;4.93;;;43.40;14.00;;;;;;5043355;28;20520;-84
2023/06/14 06:38:39;;;;;;;10.07;4.40;;;44.20;8.30;;;;;;5031737;28;20596;-80
2023/06/14 06:41:04;;;;;;;10.00;4.80;;;44.80;2.50;;;;;;5041823;28;20212;-82
2023/06/14 06:43:30;;;;;;;11.03;4.73;;;45.50;1.00;;;;;;5033594;28;20210;-81
2023/06/14 06:45:55;;;;;;;6.67;4.90;;;45.90;1.00;;;;;;5033311;28;21125;-82
2023/06/14 06:48:21;;;;;;;8.80;4.87;;;46.30;1.00;;;;;;5028860;28;20216;-83
2023/06/14 06:50:46;;;;;;;5.47;4.30;;;46.60;1.00;;;;;;5042513;28;20190;-82
2023/06/14 06:53:12;;;;;;;9.83;4.27;;;46.80;1.00;;;;;;5032083;28;20196;-81
2023/06/14 06:55:37;;;;;;;10.43;4.63;;;46.90;1.00;;;;;;5032316;28;21256;-80
2023/06/14 06:58:05;;;;;;;6.83;3.70;;;46.60;1.00;;;;;;5034304;28;20201;-82
2023/06/14 07:00:30;;;;;;;6.40;3.77;;;46.10;1.00;;;;;;5049078;28;20241;-82
2023/06/14 07:02:56;;;;;;;7.53;3.80;;;46.20;1.00;;;;;;5040949;28;20464;-81
2023/06/14 07:05:22;;;;;;;12.77;4.30;;;46.70;1.00;;;;;;5017706;28;20174;-80
2023/06/14 07:07:48;;;;;;;9.30;3.60;;;46.80;1.00;;;;;;5032870;28;20440;-80
2023/06/14 07:10:13;;;;;;;5.30;3.97;;;47.00;1.00;;;;;;5027405;28;20186;-80
2023/06/14 07:12:39;;;;;;;6.00;3.67;;;47.20;1.00;;;;;;5033963;28;20650;-81
2023/06/14 07:15:07;;;;;;;5.87;3.67;;;47.60;1.00;;;;;;5034303;28;20257;-81
2023/06/14 07:17:33;;;;;;;6.10;3.70;;;47.50;1.00;;;;;;5031443;28;20188;-82
2023/06/14 07:20:00;;;;;;;4.83;3.73;;;47.20;1.00;;;;;;5034430;28;20483;-82
2023/06/14 07:22:26;;;;;;;10.23;4.17;;;47.10;1.00;;;;;;5029463;28;20968;-82
2023/06/14 07:24:51;;;;;;;18.87;4.10;;;47.40;1.00;;;;;;5035035;28;20478;-81
2023/06/14 07:27:17;;;;;;;8.67;3.77;;;47.60;1.00;;;;;;5030471;28;20185;-81
2023/06/14 07:29:42;;;;;;;13.67;3.53;;;48.20;1.00;;;;;;5032317;28;20198;-82
2023/06/14 07:32:08;;;;;;;12.13;3.30;;;48.30;1.00;;;;;;5035853;28;20571;-82
2023/06/14 07:34:33;;;;;;;5.40;3.87;;;48.30;1.00;;;;;;5032663;28;20181;-82
2023/06/14 07:36:59;;;;;;;9.27;3.70;;;48.20;1.00;;;;;;5035977;28;20173;-81
2023/06/14 07:39:25;;;;;;;8.20;3.60;;;48.30;1.00;;;;;;5032753;28;20205;-81
2023/06/14 07:41:50;;;;;;;14.13;3.80;;;48.20;1.00;;;;;;5033104;28;20204;-82
2023/06/14 07:44:16;;;;;;;10.90;3.60;;;48.30;1.00;;;;;;5035518;28;20204;-82
2023/06/14 07:46:42;;;;;;;6.80;3.40;;;48.20;1.00;;;;;;5042039;28;20177;-81
2023/06/14 07:49:07;;;;;;;8.13;3.93;;;48.00;1.00;;;;;;5035590;28;20201;-80
2023/06/14 07:51:33;;;;;;;7.23;3.17;;;47.80;1.00;;;;;;5034850;28;20185;-82
2023/06/14 07:54:00;;;;;;;6.73;3.23;;;47.60;1.00;;;;;;5030677;28;20235;-81
2023/06/14 07:56:26;;;;;;;15.63;3.10;;;48.20;1.00;;;;;;5038612;28;20260;-81
2023/06/14 07:58:52;;;;;;;11.97;3.50;;;48.50;1.00;;;;;;5042970;28;20464;-82
2023/06/14 08:01:19;;;;;;;9.47;3.40;;;48.50;1.00;;;;;;5036842;28;20580;-82
2023/06/14 08:03:45;;;;;;;6.37;3.27;;;48.80;1.00;;;;;;5039293;28;20209;-82
2023/06/14 08:06:10;;;;;;;5.00;2.93;;;49.00;1.00;;;;;;5034681;28;20432;-82
2023/06/14 08:08:36;;;;;;;9.70;3.47;;;49.00;1.00;;;;;;5034272;28;20348;-80
2023/06/14 08:11:01;;;;;;;3.43;2.77;;;49.20;1.00;;;;;;5050116;28;20670;-82
2023/06/14 08:13:27;;;;;;;4.43;3.40;;;49.00;1.00;;;;;;5046719;28;20196;-82
2023/06/14 08:15:53;;;;;;;6.40;2.60;;;49.30;1.00;;;;;;5038105;28;20177;-83
2023/06/14 08:18:18;;;;;;;6.73;2.70;;;50.00;1.00;;;;;;5039529;28;20221;-83
2023/06/14 08:20:44;;;;;;;9.60;3.13;;;50.30;1.00;;;;;;5031797;28;20224;-82
2023/06/14 08:23:10;;;;;;;3.83;2.63;;;50.00;1.00;;;;;;5041729;28;20205;-82
2023/06/14 08:25:35;;;;;;;4.43;2.60;;;49.40;1.00;;;;;;5037788;28;20240;-82
2023/06/14 08:28:01;;;;;;;4.90;2.33;;;49.30;1.00;;;;;;5044025;28;20189;-82
2023/06/14 08:30:26;;;;;;;4.27;2.87;;;49.30;1.00;;;;;;5035623;28;20575;-82
2023/06/14 08:32:55;;;;;;;4.00;2.20;;;49.60;1.00;;;;;;5038997;28;20190;-82
2023/06/14 08:35:21;;;;;;;7.50;2.57;;;50.00;1.00;;;;;;5033799;28;20647;-82
2023/06/14 08:37:46;;;;;;;10.20;3.20;;;50.50;1.00;;;;;;5037648;28;20451;-82
2023/06/14 08:40:22;;;;;;;10.43;3.07;;;50.50;1.00;;;;;;5038660;28;20197;-82
2023/06/14 08:42:52;;;;;;;5.23;2.60;;;50.00;1.00;;;;;;5037808;28;20197;-81
2023/06/14 08:45:18;;;;;;;4.20;2.70;;;50.30;1.00;;;;;;5031567;28;20877;-82
2023/06/14 08:47:45;;;;;;;5.73;2.57;;;50.40;1.00;;;;;;5031644;28;21203;-82
2023/06/14 08:50:11;;;;;;;2.60;2.37;;;50.70;1.00;;;;;;5035920;28;20428;-82
2023/06/14 08:52:49;;;;;;;2.23;1.90;;;50.90;1.00;;;;;;5034962;28;20451;-83
2023/06/14 08:55:15;;;;;;;5.37;2.10;;;50.40;1.00;;;;;;5034313;28;20969;-82
2023/06/14 08:57:41;;;;;;;2.60;2.17;;;50.00;1.00;;;;;;5036888;28;20436;-80
2023/06/14 09:00:11;;;;;;;3.27;1.93;;;49.70;1.00;;;;;;5038761;28;20481;-82
2023/06/14 09:02:38;;;;;;;3.93;2.60;;;49.40;1.00;;;;;;5040732;28;20197;-82
2023/06/14 09:05:03;;;;;;;3.90;1.73;;;49.20;1.00;;;;;;5029538;28;20463;-82
2023/06/14 09:07:29;;;;;;;1.60;1.40;;;49.00;1.00;;;;;;5032897;28;20436;-81
2023/06/14 09:10:11;;;;;;;1.60;1.50;;;48.60;1.00;;;;;;5034198;28;20679;-79
2023/06/14 09:12:37;;;;;;;3.37;1.67;;;48.40;1.00;;;;;;5037545;28;20178;-82
2023/06/14 09:15:05;;;;;;;2.80;1.40;;;48.60;1.00;;;;;;5025513;28;20516;-82
2023/06/14 09:17:35;;;;;;;2.47;1.63;;;48.60;1.00;;;;;;5035758;28;20210;-82
2023/06/14 09:20:06;;;;;;;1.63;1.53;;;48.40;1.00;;;;;;5036741;28;20515;-82
2023/06/14 09:22:33;;;;;;;5.10;2.33;;;48.10;1.00;;;;;;5033606;28;20476;-82
2023/06/14 09:24:59;;;;;;;3.53;1.43;;;48.00;1.00;;;;;;5037056;28;20501;-82
2023/06/14 09:27:28;;;;;;;2.10;1.83;;;47.80;1.00;;;;;;5037728;28;20417;-82
2023/06/14 09:29:54;;;;;;;5.20;1.87;;;47.40;1.00;;;;;;5035843;28;20797;-81
2023/06/14 09:32:21;;;;;;;3.30;1.50;;;47.50;1.00;;;;;;5035351;28;20444;-82
2023/06/14 09:34:47;;;;;;;3.13;1.67;;;47.20;1.00;;;;;;5035833;28;20178;-81
2023/06/14 09:37:12;;;;;;;2.30;1.43;;;46.90;1.00;;;;;;5031617;28;20449;-82
2023/06/14 09:39:51;;;;;;;1.87;1.30;;;46.70;1.00;;;;;;5034444;28;20213;-80
2023/06/14 09:42:20;;;;;;;3.40;1.70;;;46.70;1.00;;;;;;5036919;28;20186;-82
2023/06/14 09:44:48;;;;;;;3.57;2.00;;;46.60;1.00;;;;;;5036071;28;20524;-82
2023/06/14 09:47:15;;;;;;;2.30;2.10;;;46.30;1.00;;;;;;5036338;28;20444;-82
2023/06/14 09:49:41;;;;;;;3.40;1.70;;;46.20;1.00;;;;;;5034575;28;20457;-82
2023/06/14 09:52:13;;;;;;;2.60;1.70;;;46.10;1.00;;;;;;5037472;28;20505;-81
2023/06/14 09:54:48;;;;;;;5.13;1.93;;;45.90;1.00;;;;;;5027467;28;20539;-80
2023/06/14 09:57:20;;;;;;;1.87;1.70;;;45.60;1.00;;;;;;5034587;28;20932;-82
2023/06/14 09:59:47;;;;;;;1.87;1.77;;;45.50;1.00;;;;;;5035126;28;20925;-82
2023/06/14 10:02:26;;;;;;;4.70;2.60;;;45.30;1.00;;;;;;5037451;28;20438;-81
2023/06/14 10:05:05;;;;;;;3.30;1.70;;;45.10;1.00;;;;;;5037628;28;20937;-81
2023/06/14 10:07:35;;;;;;;4.10;1.70;;;45.10;1.00;;;;;;5037788;28;20459;-80
2023/06/14 10:10:01;;;;;;;4.20;2.03;;;45.00;1.00;;;;;;5034575;28;20457;-80
2023/06/14 10:12:27;;;;;;;2.57;1.53;;;44.90;1.00;;;;;;5027779;28;20525;-82
2023/06/14 10:14:53;;;;;;;6.70;2.30;;;44.40;1.00;;;;;;5032771;28;20916;-81
2023/06/14 10:17:28;;;;;;;5.50;2.10;;;43.90;1.00;;;;;;5039676;28;20272;-81
2023/06/14 10:20:24;;;;;;;1.80;1.57;;;43.50;1.00;;;;;;5034227;28;20526;-82
2023/06/14 10:23:03;;;;;;;4.00;2.10;;;43.40;1.00;;;;;;5033906;28;21053;-81
2023/06/14 10:25:30;;;;;;;3.20;1.60;;;43.40;1.00;;;;;;5040317;28;20448;-82
2023/06/14 10:28:19;;;;;;;2.20;1.70;;;43.30;1.00;;;;;;5041442;28;20447;-81
2023/06/14 10:31:12;;;;;;;2.80;1.90;;;43.40;1.00;;;;;;5031671;28;20453;-82
2023/06/14 10:33:56;;;;;;;2.77;1.50;;;43.30;1.00;;;;;;5032163;28;20452;-81
2023/06/14 10:36:22;;;;;;;2.57;2.03;;;43.20;1.00;;;;;;5033783;28;20523;-80
2023/06/14 10:39:02;;;;;;;3.70;1.33;;;43.20;1.00;;;;;;5034773;28;20472;-81
2023/06/14 10:41:28;;;;;;;7.40;1.63;;;43.00;1.00;;;;;;5035416;28;20213;-82
2023/06/14 10:44:12;;;;;;;2.33;1.30;;;42.70;1.00;;;;;;5032814;28;20462;-82
2023/06/14 10:46:46;;;;;;;5.80;1.60;;;42.70;1.00;;;;;;5024586;28;20433;-82
2023/06/14 10:49:11;;;;;;;11.00;1.97;;;42.80;1.00;;;;;;5032880;28;20550;-82
2023/06/14 10:51:46;;;;;;;4.03;1.50;;;42.60;1.00;;;;;;5034706;28;20578;-82
2023/06/14 10:54:15;;;;;;;4.17;1.87;;;42.10;1.00;;;;;;5032693;28;20182;-81
2023/06/14 10:56:51;;;;;;;4.73;1.67;;;41.60;1.00;;;;;;5047180;28;20915;-81
2023/06/14 10:59:18;;;;;;;4.00;1.73;;;41.40;1.00;;;;;;5034396;28;20811;-81
2023/06/14 11:02:12;;;;;;;3.33;2.13;;;41.10;1.00;;;;;;5038276;28;20437;-81
2023/06/14 11:04:49;;;;;;;4.67;1.70;;;41.00;1.00;;;;;;5034070;28;20526;-81
2023/06/14 11:07:58;;;;;;;4.33;1.50;;;40.80;1.00;;;;;;5033469;28;20464;-81
2023/06/14 11:10:37;;;;;;;2.07;1.70;;;40.80;1.00;;;;;;5029992;28;20431;-80
2023/06/14 11:13:03;;;;;;;5.27;1.90;;;40.70;1.00;;;;;;5038878;28;20440;-80
2023/06/14 11:15:32;;;;;;;3.20;1.83;;;40.90;1.00;;;;;;5030542;28;20466;-81
2023/06/14 11:18:05;;;;;;;4.07;1.90;;;40.90;1.00;;;;;;5036806;28;20297;-81
2023/06/14 11:20:32;;;;;;;1.67;1.40;;;40.70;1.00;;;;;;5026890;28;20437;-81
2023/06/14 11:22:58;;;;;;;3.00;1.80;;;40.50;1.00;;;;;;5031808;28;20504;-81
2023/06/14 11:25:25;;;;;;;2.40;1.70;;;40.30;1.00;;;;;;5040926;28;20447;-80
2023/06/14 11:27:50;;;;;;;2.40;1.47;;;40.00;1.00;;;;;;5038752;28;20431;-81
2023/06/14 11:30:16;;;;;;;3.97;2.20;;;40.00;1.00;;;;;;5034805;28;20433;-80
2023/06/14 11:32:42;;;;;;;2.60;1.93;;;39.80;1.00;;;;;;5037558;28;20271;-80
2023/06/14 11:35:09;;;;;;;3.00;2.13;;;39.80;1.00;;;;;;5032028;28;20716;-81
2023/06/14 11:37:39;;;;;;;3.60;1.80;;;39.70;1.00;;;;;;5029298;28;20178;-81
2023/06/14 11:40:10;;;;;;;4.13;2.10;;;39.50;1.00;;;;;;5033627;28;20423;-80
2023/06/14 11:42:36;;;;;;;9.77;2.27;;;39.30;1.00;;;;;;5038398;28;20531;-80
2023/06/14 11:45:03;;;;;;;4.70;2.40;;;39.40;1.00;;;;;;5039182;28;20486;-82
2023/06/14 11:47:35;;;;;;;3.80;1.80;;;39.50;1.00;;;;;;5030607;28;20439;-81
2023/06/14 11:50:01;;;;;;;4.60;2.07;;;39.40;1.00;;;;;;5036132;28;20449;-80
2023/06/14 11:52:27;;;;;;;3.63;1.60;;;39.10;1.00;;;;;;5040761;28;20917;-81
2023/06/14 11:54:53;;;;;;;2.90;1.67;;;38.70;1.00;;;;;;5029772;28;20428;-80
2023/06/14 11:57:20;;;;;;;3.47;1.90;;;38.30;1.00;;;;;;5037579;28;20186;-79
2023/06/14 11:59:46;;;;;;;2.60;1.73;;;38.00;1.00;;;;;;5036652;28;20464;-81
2023/06/14 12:02:16;;;;;;;2.90;2.00;;;37.90;1.00;;;;;;5036327;28;20436;-81
2023/06/14 12:04:50;;;;;;;4.43;1.53;;;37.90;1.00;;;;;;5033851;28;20441;-81
2023/06/14 12:07:19;;;;;;;1.80;1.50;;;37.60;1.00;;;;;;5044067;28;20476;-81
2023/06/14 12:09:54;;;;;;;3.10;1.80;;;37.50;1.00;;;;;;5037811;28;20550;-80
2023/06/14 12:12:27;;;;;;;2.80;1.80;;;37.40;1.00;;;;;;5027583;28;20452;-81
2023/06/14 12:14:55;;;;;;;3.00;2.10;;;37.30;1.00;;;;;;5043383;28;20804;-81
2023/06/14 12:17:21;;;;;;;3.07;1.67;;;37.20;1.00;;;;;;5050286;28;20442;-82
2023/06/14 12:19:49;;;;;;;2.53;1.60;;;36.90;1.00;;;;;;5045064;28;20480;-83
2023/06/14 12:22:16;;;;;;;1.80;1.67;;;37.10;1.00;;;;;;5033562;28;20574;-81
2023/06/14 12:24:45;;;;;;;1.97;1.60;;;37.50;1.00;;;;;;5034311;28;20487;-83
2023/06/14 12:27:15;;;;;;;3.57;1.57;;;37.70;1.00;;;;;;5028300;28;20938;-82
2023/06/14 12:29:45;;;;;;;5.07;1.90;;;38.00;1.00;;;;;;5024239;28;20461;-83
2023/06/14 12:32:11;;;;;;;7.97;1.80;;;37.80;1.00;;;;;;5044008;28;20455;-82
2023/06/14 12:34:37;;;;;;;5.20;2.40;;;37.70;1.00;;;;;;5036098;28;20443;-82
2023/06/14 12:37:06;;;;;;;2.83;2.00;;;37.30;1.00;;;;;;5038219;28;20449;-81
2023/06/14 12:39:32;;;;;;;2.93;2.30;;;36.90;1.00;;;;;;5033680;28;20501;-82
2023/06/14 12:41:58;;;;;;;5.47;2.43;;;36.90;1.00;;;;;;5036416;28;20432;-82
2023/06/14 12:44:23;;;;;;;2.60;1.83;;;36.70;1.00;;;;;;5029232;28;20465;-83
2023/06/14 12:46:51;;;;;;;3.37;2.00;;;36.70;1.00;;;;;;5038504;28;20186;-81
2023/06/14 12:49:17;;;;;;;3.13;2.17;;;36.90;1.00;;;;;;5032276;28;20256;-82
2023/06/14 12:51:42;;;;;;;5.53;2.17;;;36.60;1.00;;;;;;5039881;28;20441;-83
2023/06/14 12:54:08;;;;;;;2.83;1.90;;;36.50;1.00;;;;;;5038554;28;20451;-82